sensor_id;sensor_type;location;lat;lon;timestamp;temperature;humidity
3626;DHT22;1827;50.534;8.316;2023-04-15T00:01:21;2.20;99.90
3626;DHT22;1827;50.534;8.316;2023-04-15T00:03:49;2.20;99.90
3626;DHT22;1827;50.534;8.316;2023-04-15T00:06:15;2.10;99.90
3626;DHT22;1827;50.534;8.316;2023-04-15T00:08:40;2.00;99.90
3626;DHT22;1827;50.534;8.316;2023-04-15T00:11:06;2.00;99.90
3626;DHT22;1827;50.534;8.316;2023-04-15T00:13:32;2.00;99.90
3626;DHT22;1827;50.534;8.316;2023-04-15T00:15:59;2.00;99.90
3626;DHT22;1827;50.534;8.316;2023-04-15T00:18:25;1.90;99.90
3626;DHT22;1827;50.534;8.316;2023-04-15T00:20:51;1.90;99.90
3626;DHT22;1827;50.534;8.316;2023-04-15T00:23:16;1.80;99.90
3626;DHT22;1827;50.534;8.316;2023-04-15T00:25:42;1.80;99.90
3626;DHT22;1827;50.534;8.316;2023-04-15T00:28:08;1.90;1.00
3626;DHT22;1827;50.534;8.316;2023-04-15T00:30:33;1.90;1.00
3626;DHT22;1827;50.534;8.316;2023-04-15T00:32:59;1.80;1.00
3626;DHT22;1827;50.534;8.316;2023-04-15T00:35:26;1.80;1.00
3626;DHT22;1827;50.534;8.316;2023-04-15T00:37:52;1.80;1.00
3626;DHT22;1827;50.534;8.316;2023-04-15T00:40:18;1.80;1.00
3626;DHT22;1827;50.534;8.316;2023-04-15T00:42:45;1.80;1.00
3626;DHT22;1827;50.534;8.316;2023-04-15T00:45:10;1.70;1.00
3626;DHT22;1827;50.534;8.316;2023-04-15T00:47:36;1.70;1.00
3626;DHT22;1827;50.534;8.316;2023-04-15T00:50:02;1.70;1.00
3626;DHT22;1827;50.534;8.316;2023-04-15T00:52:27;1.70;1.00
3626;DHT22;1827;50.534;8.316;2023-04-15T00:54:54;1.70;1.00
3626;DHT22;1827;50.534;8.316;2023-04-15T00:57:20;1.60;1.00
3626;DHT22;1827;50.534;8.316;2023-04-15T00:59:47;1.60;1.00
3626;DHT22;1827;50.534;8.316;2023-04-15T01:02:13;1.60;1.00
3626;DHT22;1827;50.534;8.316;2023-04-15T01:04:39;1.50;1.00
3626;DHT22;1827;50.534;8.316;2023-04-15T01:07:04;1.50;1.00
3626;DHT22;1827;50.534;8.316;2023-04-15T01:09:30;1.50;1.00
3626;DHT22;1827;50.534;8.316;2023-04-15T01:11:57;1.50;1.00
3626;DHT22;1827;50.534;8.316;2023-04-15T01:14:23;1.40;1.00
3626;DHT22;1827;50.534;8.316;2023-04-15T01:16:49;1.40;1.00
3626;DHT22;1827;50.534;8.316;2023-04-15T01:19:15;1.30;1.00
3626;DHT22;1827;50.534;8.316;2023-04-15T01:21:41;1.20;1.00
3626;DHT22;1827;50.534;8.316;2023-04-15T01:24:08;1.20;1.00
3626;DHT22;1827;50.534;8.316;2023-04-15T01:26:38;1.20;1.00
3626;DHT22;1827;50.534;8.316;2023-04-15T01:29:06;1.20;1.00
3626;DHT22;1827;50.534;8.316;2023-04-15T01:31:32;1.20;1.00
3626;DHT22;1827;50.534;8.316;2023-04-15T01:33:58;1.20;1.00
3626;DHT22;1827;50.534;8.316;2023-04-15T01:36:24;1.20;1.00
3626;DHT22;1827;50.534;8.316;2023-04-15T01:38:52;1.20;1.00
3626;DHT22;1827;50.534;8.316;2023-04-15T01:41:26;1.10;1.00
3626;DHT22;1827;50.534;8.316;2023-04-15T01:43:52;1.10;1.00
3626;DHT22;1827;50.534;8.316;2023-04-15T01:46:18;1.10;1.00
3626;DHT22;1827;50.534;8.316;2023-04-15T01:48:43;1.00;1.00
3626;DHT22;1827;50.534;8.316;2023-04-15T01:51:09;1.00;1.00
3626;DHT22;1827;50.534;8.316;2023-04-15T01:53:34;1.00;1.00
3626;DHT22;1827;50.534;8.316;2023-04-15T01:56:01;0.90;1.00
3626;DHT22;1827;50.534;8.316;2023-04-15T01:58:26;0.90;1.00
3626;DHT22;1827;50.534;8.316;2023-04-15T02:00:53;0.90;1.00
3626;DHT22;1827;50.534;8.316;2023-04-15T02:03:18;0.80;1.00
3626;DHT22;1827;50.534;8.316;2023-04-15T02:05:44;0.70;1.00
3626;DHT22;1827;50.534;8.316;2023-04-15T02:08:10;0.70;1.00
3626;DHT22;1827;50.534;8.316;2023-04-15T02:10:37;0.70;1.00
3626;DHT22;1827;50.534;8.316;2023-04-15T02:13:04;0.70;1.00
3626;DHT22;1827;50.534;8.316;2023-04-15T02:15:29;0.70;1.00
3626;DHT22;1827;50.534;8.316;2023-04-15T02:17:55;0.80;1.00
3626;DHT22;1827;50.534;8.316;2023-04-15T02:20:21;0.80;1.00
3626;DHT22;1827;50.534;8.316;2023-04-15T02:22:47;0.70;1.00
3626;DHT22;1827;50.534;8.316;2023-04-15T02:25:14;0.60;1.00
3626;DHT22;1827;50.534;8.316;2023-04-15T02:27:41;0.70;1.00
3626;DHT22;1827;50.534;8.316;2023-04-15T02:30:07;0.70;1.00
3626;DHT22;1827;50.534;8.316;2023-04-15T02:32:33;0.60;4.30
3626;DHT22;1827;50.534;8.316;2023-04-15T02:35:05;0.60;4.20
3626;DHT22;1827;50.534;8.316;2023-04-15T02:37:32;0.60;1.70
3626;DHT22;1827;50.534;8.316;2023-04-15T02:40:01;0.60;1.50
3626;DHT22;1827;50.534;8.316;2023-04-15T02:42:28;0.60;1.00
3626;DHT22;1827;50.534;8.316;2023-04-15T02:44:54;0.60;1.00
3626;DHT22;1827;50.534;8.316;2023-04-15T02:47:22;0.60;11.70
3626;DHT22;1827;50.534;8.316;2023-04-15T02:49:48;0.50;5.20
3626;DHT22;1827;50.534;8.316;2023-04-15T02:52:13;0.40;2.10
3626;DHT22;1827;50.534;8.316;2023-04-15T02:54:39;0.40;8.40
3626;DHT22;1827;50.534;8.316;2023-04-15T02:57:05;0.40;17.00
3626;DHT22;1827;50.534;8.316;2023-04-15T02:59:31;0.30;11.40
3626;DHT22;1827;50.534;8.316;2023-04-15T03:01:56;0.30;16.50
3626;DHT22;1827;50.534;8.316;2023-04-15T03:04:25;0.30;27.90
3626;DHT22;1827;50.534;8.316;2023-04-15T03:06:51;0.30;33.80
3626;DHT22;1827;50.534;8.316;2023-04-15T03:09:17;0.30;35.60
3626;DHT22;1827;50.534;8.316;2023-04-15T03:11:43;0.30;34.80
3626;DHT22;1827;50.534;8.316;2023-04-15T03:14:08;0.30;28.10
3626;DHT22;1827;50.534;8.316;2023-04-15T03:16:38;0.30;24.40
3626;DHT22;1827;50.534;8.316;2023-04-15T03:19:04;0.30;28.70
3626;DHT22;1827;50.534;8.316;2023-04-15T03:21:31;0.30;37.10
3626;DHT22;1827;50.534;8.316;2023-04-15T03:23:57;0.30;37.80
3626;DHT22;1827;50.534;8.316;2023-04-15T03:26:25;0.30;39.10
3626;DHT22;1827;50.534;8.316;2023-04-15T03:28:51;0.30;44.10
3626;DHT22;1827;50.534;8.316;2023-04-15T03:31:17;0.30;45.00
3626;DHT22;1827;50.534;8.316;2023-04-15T03:33:43;0.20;44.40
3626;DHT22;1827;50.534;8.316;2023-04-15T03:36:08;0.20;43.10
3626;DHT22;1827;50.534;8.316;2023-04-15T03:38:34;0.20;44.10
3626;DHT22;1827;50.534;8.316;2023-04-15T03:41:00;0.20;51.90
3626;DHT22;1827;50.534;8.316;2023-04-15T03:43:25;0.20;51.20
3626;DHT22;1827;50.534;8.316;2023-04-15T03:45:51;0.20;54.80
3626;DHT22;1827;50.534;8.316;2023-04-15T03:48:17;0.20;81.20
3626;DHT22;1827;50.534;8.316;2023-04-15T03:50:42;0.20;98.40
3626;DHT22;1827;50.534;8.316;2023-04-15T03:53:08;0.20;99.90
3626;DHT22;1827;50.534;8.316;2023-04-15T03:55:33;0.20;99.90
3626;DHT22;1827;50.534;8.316;2023-04-15T03:57:59;0.20;99.90
3626;DHT22;1827;50.534;8.316;2023-04-15T04:00:25;0.10;99.90
3626;DHT22;1827;50.534;8.316;2023-04-15T04:02:50;0.00;99.90
3626;DHT22;1827;50.534;8.316;2023-04-15T04:05:16;0.00;99.90
3626;DHT22;1827;50.534;8.316;2023-04-15T04:07:41;0.00;99.90
3626;DHT22;1827;50.534;8.316;2023-04-15T04:10:07;0.10;99.90
3626;DHT22;1827;50.534;8.316;2023-04-15T04:12:32;0.10;99.90
3626;DHT22;1827;50.534;8.316;2023-04-15T04:14:58;0.10;99.90
3626;DHT22;1827;50.534;8.316;2023-04-15T04:17:24;0.10;99.90
3626;DHT22;1827;50.534;8.316;2023-04-15T04:19:49;0.10;99.90
3626;DHT22;1827;50.534;8.316;2023-04-15T04:22:15;0.10;99.90
3626;DHT22;1827;50.534;8.316;2023-04-15T04:24:41;0.10;99.90
3626;DHT22;1827;50.534;8.316;2023-04-15T04:27:06;0.20;99.90
3626;DHT22;1827;50.534;8.316;2023-04-15T04:29:32;0.20;99.90
3626;DHT22;1827;50.534;8.316;2023-04-15T04:31:57;0.20;99.90
3626;DHT22;1827;50.534;8.316;2023-04-15T04:34:23;0.20;99.90
3626;DHT22;1827;50.534;8.316;2023-04-15T04:36:48;0.40;99.90
3626;DHT22;1827;50.534;8.316;2023-04-15T04:39:14;0.40;99.90
3626;DHT22;1827;50.534;8.316;2023-04-15T04:41:39;0.40;99.90
3626;DHT22;1827;50.534;8.316;2023-04-15T04:44:05;0.30;99.90
3626;DHT22;1827;50.534;8.316;2023-04-15T04:46:31;0.30;99.90
3626;DHT22;1827;50.534;8.316;2023-04-15T04:48:58;0.40;99.90
3626;DHT22;1827;50.534;8.316;2023-04-15T04:51:23;0.40;99.90
3626;DHT22;1827;50.534;8.316;2023-04-15T04:53:49;0.40;1.00
3626;DHT22;1827;50.534;8.316;2023-04-15T04:56:15;0.40;1.00
3626;DHT22;1827;50.534;8.316;2023-04-15T04:58:40;0.40;1.00
3626;DHT22;1827;50.534;8.316;2023-04-15T05:01:06;0.50;1.00
3626;DHT22;1827;50.534;8.316;2023-04-15T05:03:32;0.50;1.00
3626;DHT22;1827;50.534;8.316;2023-04-15T05:05:57;0.60;1.00
3626;DHT22;1827;50.534;8.316;2023-04-15T05:08:23;0.60;1.00
3626;DHT22;1827;50.534;8.316;2023-04-15T05:10:49;0.80;1.00
3626;DHT22;1827;50.534;8.316;2023-04-15T05:13:14;0.90;1.00
3626;DHT22;1827;50.534;8.316;2023-04-15T05:15:40;0.90;1.00
3626;DHT22;1827;50.534;8.316;2023-04-15T05:18:07;1.00;1.00
3626;DHT22;1827;50.534;8.316;2023-04-15T05:20:33;0.90;1.00
3626;DHT22;1827;50.534;8.316;2023-04-15T05:22:58;0.80;1.00
3626;DHT22;1827;50.534;8.316;2023-04-15T05:25:24;0.80;1.00
3626;DHT22;1827;50.534;8.316;2023-04-15T05:27:50;0.80;1.00
3626;DHT22;1827;50.534;8.316;2023-04-15T05:30:16;0.80;1.00
3626;DHT22;1827;50.534;8.316;2023-04-15T05:32:42;1.00;1.00
3626;DHT22;1827;50.534;8.316;2023-04-15T05:35:07;1.10;1.00
3626;DHT22;1827;50.534;8.316;2023-04-15T05:37:33;1.20;1.00
3626;DHT22;1827;50.534;8.316;2023-04-15T05:39:58;1.20;1.00
3626;DHT22;1827;50.534;8.316;2023-04-15T05:42:24;1.40;1.00
3626;DHT22;1827;50.534;8.316;2023-04-15T05:44:49;1.20;1.00
3626;DHT22;1827;50.534;8.316;2023-04-15T05:47:15;1.20;1.00
3626;DHT22;1827;50.534;8.316;2023-04-15T05:49:41;1.30;1.00
3626;DHT22;1827;50.534;8.316;2023-04-15T05:52:06;1.50;34.60
3626;DHT22;1827;50.534;8.316;2023-04-15T05:54:32;1.80;99.90
3626;DHT22;1827;50.534;8.316;2023-04-15T05:56:58;2.00;99.90
3626;DHT22;1827;50.534;8.316;2023-04-15T05:59:23;2.00;99.90
3626;DHT22;1827;50.534;8.316;2023-04-15T06:01:49;2.10;99.90
3626;DHT22;1827;50.534;8.316;2023-04-15T06:04:16;2.30;99.90
3626;DHT22;1827;50.534;8.316;2023-04-15T06:06:41;2.50;99.90
3626;DHT22;1827;50.534;8.316;2023-04-15T06:09:07;2.40;15.30
3626;DHT22;1827;50.534;8.316;2023-04-15T06:11:33;2.40;1.00
3626;DHT22;1827;50.534;8.316;2023-04-15T06:13:58;2.60;1.00
3626;DHT22;1827;50.534;8.316;2023-04-15T06:16:24;2.60;1.00
3626;DHT22;1827;50.534;8.316;2023-04-15T06:18:49;2.60;1.00
3626;DHT22;1827;50.534;8.316;2023-04-15T06:21:15;2.50;1.00
3626;DHT22;1827;50.534;8.316;2023-04-15T06:23:40;2.60;1.00
3626;DHT22;1827;50.534;8.316;2023-04-15T06:26:06;2.70;1.00
3626;DHT22;1827;50.534;8.316;2023-04-15T06:28:32;3.00;1.00
3626;DHT22;1827;50.534;8.316;2023-04-15T06:30:58;2.90;1.00
3626;DHT22;1827;50.534;8.316;2023-04-15T06:33:23;2.90;1.00
3626;DHT22;1827;50.534;8.316;2023-04-15T06:35:49;3.10;1.00
3626;DHT22;1827;50.534;8.316;2023-04-15T06:38:15;3.20;1.00
3626;DHT22;1827;50.534;8.316;2023-04-15T06:40:40;3.50;1.00
3626;DHT22;1827;50.534;8.316;2023-04-15T06:43:06;3.00;1.00
3626;DHT22;1827;50.534;8.316;2023-04-15T06:45:32;3.20;1.00
3626;DHT22;1827;50.534;8.316;2023-04-15T06:47:57;3.30;1.00
3626;DHT22;1827;50.534;8.316;2023-04-15T06:50:23;3.80;1.00
3626;DHT22;1827;50.534;8.316;2023-04-15T06:52:49;4.00;1.00
3626;DHT22;1827;50.534;8.316;2023-04-15T06:55:15;4.20;1.00
3626;DHT22;1827;50.534;8.316;2023-04-15T06:57:40;4.50;1.00
3626;DHT22;1827;50.534;8.316;2023-04-15T07:00:06;4.80;99.90
3626;DHT22;1827;50.534;8.316;2023-04-15T07:02:32;4.70;99.90
3626;DHT22;1827;50.534;8.316;2023-04-15T07:04:57;4.80;99.90
3626;DHT22;1827;50.534;8.316;2023-04-15T07:07:23;5.00;99.90
3626;DHT22;1827;50.534;8.316;2023-04-15T07:09:49;5.00;99.90
3626;DHT22;1827;50.534;8.316;2023-04-15T07:12:15;4.80;58.80
3626;DHT22;1827;50.534;8.316;2023-04-15T07:14:41;5.30;26.90
3626;DHT22;1827;50.534;8.316;2023-04-15T07:17:07;5.40;1.00
3626;DHT22;1827;50.534;8.316;2023-04-15T07:19:33;5.50;1.00
3626;DHT22;1827;50.534;8.316;2023-04-15T07:21:59;5.40;1.00
3626;DHT22;1827;50.534;8.316;2023-04-15T07:24:24;5.80;1.00
3626;DHT22;1827;50.534;8.316;2023-04-15T07:26:52;5.90;1.00
3626;DHT22;1827;50.534;8.316;2023-04-15T07:29:18;6.20;1.00
3626;DHT22;1827;50.534;8.316;2023-04-15T07:31:43;6.00;1.00
3626;DHT22;1827;50.534;8.316;2023-04-15T07:34:09;5.90;1.00
3626;DHT22;1827;50.534;8.316;2023-04-15T07:36:35;5.70;1.00
3626;DHT22;1827;50.534;8.316;2023-04-15T07:39:01;5.90;1.00
3626;DHT22;1827;50.534;8.316;2023-04-15T07:41:28;6.10;1.00
3626;DHT22;1827;50.534;8.316;2023-04-15T07:43:54;6.10;99.90
3626;DHT22;1827;50.534;8.316;2023-04-15T07:46:19;6.20;99.90
3626;DHT22;1827;50.534;8.316;2023-04-15T07:48:45;6.50;99.90
3626;DHT22;1827;50.534;8.316;2023-04-15T07:51:10;6.50;99.90
3626;DHT22;1827;50.534;8.316;2023-04-15T07:53:37;6.70;99.90
3626;DHT22;1827;50.534;8.316;2023-04-15T07:56:02;7.20;99.90
3626;DHT22;1827;50.534;8.316;2023-04-15T07:58:28;7.40;99.90
3626;DHT22;1827;50.534;8.316;2023-04-15T08:00:54;7.50;99.90
3626;DHT22;1827;50.534;8.316;2023-04-15T08:03:20;7.40;99.90
3626;DHT22;1827;50.534;8.316;2023-04-15T08:05:46;7.70;99.90
3626;DHT22;1827;50.534;8.316;2023-04-15T08:08:12;7.80;99.90
3626;DHT22;1827;50.534;8.316;2023-04-15T08:10:38;7.60;62.30
3626;DHT22;1827;50.534;8.316;2023-04-15T08:13:03;7.50;35.90
3626;DHT22;1827;50.534;8.316;2023-04-15T08:15:29;7.80;1.20
3626;DHT22;1827;50.534;8.316;2023-04-15T08:17:57;8.10;1.00
3626;DHT22;1827;50.534;8.316;2023-04-15T08:20:24;8.20;1.00
3626;DHT22;1827;50.534;8.316;2023-04-15T08:22:50;8.10;1.00
3626;DHT22;1827;50.534;8.316;2023-04-15T08:25:17;8.20;1.00
3626;DHT22;1827;50.534;8.316;2023-04-15T08:27:43;8.30;1.00
3626;DHT22;1827;50.534;8.316;2023-04-15T08:30:08;8.30;1.00
3626;DHT22;1827;50.534;8.316;2023-04-15T08:32:34;8.60;1.00
3626;DHT22;1827;50.534;8.316;2023-04-15T08:35:00;8.70;1.00
3626;DHT22;1827;50.534;8.316;2023-04-15T08:37:26;8.50;1.00
3626;DHT22;1827;50.534;8.316;2023-04-15T08:39:51;8.70;1.00
3626;DHT22;1827;50.534;8.316;2023-04-15T08:42:26;8.60;1.00
3626;DHT22;1827;50.534;8.316;2023-04-15T08:44:52;8.50;1.00
3626;DHT22;1827;50.534;8.316;2023-04-15T08:47:19;8.40;1.00
3626;DHT22;1827;50.534;8.316;2023-04-15T08:49:46;8.70;1.00
3626;DHT22;1827;50.534;8.316;2023-04-15T08:52:18;9.10;1.00
3626;DHT22;1827;50.534;8.316;2023-04-15T08:54:43;9.20;1.00
3626;DHT22;1827;50.534;8.316;2023-04-15T08:57:09;9.30;1.00
3626;DHT22;1827;50.534;8.316;2023-04-15T08:59:35;9.80;1.00
3626;DHT22;1827;50.534;8.316;2023-04-15T09:02:01;9.80;1.00
3626;DHT22;1827;50.534;8.316;2023-04-15T09:04:27;10.10;1.00
3626;DHT22;1827;50.534;8.316;2023-04-15T09:06:52;10.30;1.00
3626;DHT22;1827;50.534;8.316;2023-04-15T09:09:18;10.30;1.00
3626;DHT22;1827;50.534;8.316;2023-04-15T09:11:43;10.40;1.00
3626;DHT22;1827;50.534;8.316;2023-04-15T09:14:09;10.50;1.00
3626;DHT22;1827;50.534;8.316;2023-04-15T09:19:21;10.60;1.00
3626;DHT22;1827;50.534;8.316;2023-04-15T09:21:47;10.80;1.00
3626;DHT22;1827;50.534;8.316;2023-04-15T09:24:13;10.70;1.00
3626;DHT22;1827;50.534;8.316;2023-04-15T09:26:38;10.80;1.00
3626;DHT22;1827;50.534;8.316;2023-04-15T09:29:13;10.90;1.00
3626;DHT22;1827;50.534;8.316;2023-04-15T09:31:39;11.00;1.00
3626;DHT22;1827;50.534;8.316;2023-04-15T09:34:05;11.10;1.00
3626;DHT22;1827;50.534;8.316;2023-04-15T09:37:05;11.00;1.00
3626;DHT22;1827;50.534;8.316;2023-04-15T09:39:23;11.10;1.00
3626;DHT22;1827;50.534;8.316;2023-04-15T09:42:06;11.30;1.00
3626;DHT22;1827;50.534;8.316;2023-04-15T09:44:32;10.90;1.00
3626;DHT22;1827;50.534;8.316;2023-04-15T09:46:58;10.80;1.00
3626;DHT22;1827;50.534;8.316;2023-04-15T09:49:25;10.80;1.00
3626;DHT22;1827;50.534;8.316;2023-04-15T09:51:56;10.80;1.00
3626;DHT22;1827;50.534;8.316;2023-04-15T09:54:22;10.80;1.00
3626;DHT22;1827;50.534;8.316;2023-04-15T09:56:48;10.60;1.00
3626;DHT22;1827;50.534;8.316;2023-04-15T09:59:14;10.60;1.00
3626;DHT22;1827;50.534;8.316;2023-04-15T10:01:39;10.70;1.00
3626;DHT22;1827;50.534;8.316;2023-04-15T10:04:06;10.80;1.00
3626;DHT22;1827;50.534;8.316;2023-04-15T10:06:33;10.90;1.00
3626;DHT22;1827;50.534;8.316;2023-04-15T10:08:59;11.10;1.00
3626;DHT22;1827;50.534;8.316;2023-04-15T10:11:29;11.10;1.00
3626;DHT22;1827;50.534;8.316;2023-04-15T10:13:56;10.90;1.00
3626;DHT22;1827;50.534;8.316;2023-04-15T10:16:22;10.90;1.00
3626;DHT22;1827;50.534;8.316;2023-04-15T10:18:57;10.90;1.00
3626;DHT22;1827;50.534;8.316;2023-04-15T10:21:24;10.90;1.00
3626;DHT22;1827;50.534;8.316;2023-04-15T10:23:51;10.90;1.00
3626;DHT22;1827;50.534;8.316;2023-04-15T10:26:17;11.00;99.90
3626;DHT22;1827;50.534;8.316;2023-04-15T10:28:43;11.20;1.00
3626;DHT22;1827;50.534;8.316;2023-04-15T10:31:12;11.00;99.90
3626;DHT22;1827;50.534;8.316;2023-04-15T10:33:40;10.90;99.90
3626;DHT22;1827;50.534;8.316;2023-04-15T10:36:07;11.00;99.90
3626;DHT22;1827;50.534;8.316;2023-04-15T10:38:33;11.10;99.90
3626;DHT22;1827;50.534;8.316;2023-04-15T10:43:48;10.80;99.90
3626;DHT22;1827;50.534;8.316;2023-04-15T10:46:18;10.70;99.90
3626;DHT22;1827;50.534;8.316;2023-04-15T10:48:48;10.70;99.90
3626;DHT22;1827;50.534;8.316;2023-04-15T10:51:14;11.00;99.90
3626;DHT22;1827;50.534;8.316;2023-04-15T10:53:40;10.80;99.90
3626;DHT22;1827;50.534;8.316;2023-04-15T10:56:07;10.80;1.00
3626;DHT22;1827;50.534;8.316;2023-04-15T10:58:41;10.90;1.00
3626;DHT22;1827;50.534;8.316;2023-04-15T11:01:07;10.90;1.00
3626;DHT22;1827;50.534;8.316;2023-04-15T11:03:37;10.80;1.00
3626;DHT22;1827;50.534;8.316;2023-04-15T11:06:06;10.80;1.00
3626;DHT22;1827;50.534;8.316;2023-04-15T11:11:16;10.50;1.00
3626;DHT22;1827;50.534;8.316;2023-04-15T11:13:48;10.50;1.00
3626;DHT22;1827;50.534;8.316;2023-04-15T11:16:14;10.50;1.00
3626;DHT22;1827;50.534;8.316;2023-04-15T11:18:39;10.30;1.00
3626;DHT22;1827;50.534;8.316;2023-04-15T11:21:05;10.30;1.00
3626;DHT22;1827;50.534;8.316;2023-04-15T11:23:36;10.00;1.00
3626;DHT22;1827;50.534;8.316;2023-04-15T11:26:02;10.00;1.00
3626;DHT22;1827;50.534;8.316;2023-04-15T11:28:31;10.10;1.00
3626;DHT22;1827;50.534;8.316;2023-04-15T11:30:57;9.90;1.00
3626;DHT22;1827;50.534;8.316;2023-04-15T11:33:23;10.00;1.00
3626;DHT22;1827;50.534;8.316;2023-04-15T11:35:49;10.20;1.00
3626;DHT22;1827;50.534;8.316;2023-04-15T11:38:15;10.50;1.00
3626;DHT22;1827;50.534;8.316;2023-04-15T11:40:41;10.60;1.00
3626;DHT22;1827;50.534;8.316;2023-04-15T11:43:07;10.60;1.00
3626;DHT22;1827;50.534;8.316;2023-04-15T11:45:33;10.70;1.00
3626;DHT22;1827;50.534;8.316;2023-04-15T11:48:20;10.60;1.00
3626;DHT22;1827;50.534;8.316;2023-04-15T11:50:51;10.60;1.00
3626;DHT22;1827;50.534;8.316;2023-04-15T11:53:17;10.60;1.00
3626;DHT22;1827;50.534;8.316;2023-04-15T11:55:52;10.40;1.00
3626;DHT22;1827;50.534;8.316;2023-04-15T11:58:18;10.40;1.00
3626;DHT22;1827;50.534;8.316;2023-04-15T12:00:48;10.40;1.00
3626;DHT22;1827;50.534;8.316;2023-04-15T12:11:15;9.90;1.00
3626;DHT22;1827;50.534;8.316;2023-04-15T12:13:48;9.90;1.00
3626;DHT22;1827;50.534;8.316;2023-04-15T12:16:17;9.50;1.00
3626;DHT22;1827;50.534;8.316;2023-04-15T12:18:44;9.70;1.00
3626;DHT22;1827;50.534;8.316;2023-04-15T12:21:09;9.30;1.00
3626;DHT22;1827;50.534;8.316;2023-04-15T12:23:36;9.30;1.00
3626;DHT22;1827;50.534;8.316;2023-04-15T12:26:05;9.40;1.00
3626;DHT22;1827;50.534;8.316;2023-04-15T12:28:33;9.10;1.00
3626;DHT22;1827;50.534;8.316;2023-04-15T12:31:10;9.30;3.60
3626;DHT22;1827;50.534;8.316;2023-04-15T12:33:36;9.60;23.80
3626;DHT22;1827;50.534;8.316;2023-04-15T12:36:02;9.90;1.00
3626;DHT22;1827;50.534;8.316;2023-04-15T12:38:28;9.90;1.00
3626;DHT22;1827;50.534;8.316;2023-04-15T12:40:54;10.10;1.00
3626;DHT22;1827;50.534;8.316;2023-04-15T12:43:19;10.10;1.00
3626;DHT22;1827;50.534;8.316;2023-04-15T12:45:45;10.20;1.00
3626;DHT22;1827;50.534;8.316;2023-04-15T12:48:11;10.20;1.00
3626;DHT22;1827;50.534;8.316;2023-04-15T12:50:36;9.80;1.00
3626;DHT22;1827;50.534;8.316;2023-04-15T12:53:02;10.00;1.00
3626;DHT22;1827;50.534;8.316;2023-04-15T12:55:28;10.20;1.00
3626;DHT22;1827;50.534;8.316;2023-04-15T12:57:55;10.40;1.00
3626;DHT22;1827;50.534;8.316;2023-04-15T13:00:21;10.50;1.00
3626;DHT22;1827;50.534;8.316;2023-04-15T13:02:46;10.40;1.00
3626;DHT22;1827;50.534;8.316;2023-04-15T13:05:12;10.60;1.00
3626;DHT22;1827;50.534;8.316;2023-04-15T13:07:39;10.50;1.00
3626;DHT22;1827;50.534;8.316;2023-04-15T13:10:04;10.40;1.00
3626;DHT22;1827;50.534;8.316;2023-04-15T13:12:30;10.40;1.00
3626;DHT22;1827;50.534;8.316;2023-04-15T13:14:57;10.30;1.00
3626;DHT22;1827;50.534;8.316;2023-04-15T13:17:22;10.30;1.00
3626;DHT22;1827;50.534;8.316;2023-04-15T13:19:48;10.00;1.00
3626;DHT22;1827;50.534;8.316;2023-04-15T13:22:13;10.00;1.00
3626;DHT22;1827;50.534;8.316;2023-04-15T13:24:39;9.90;1.00
3626;DHT22;1827;50.534;8.316;2023-04-15T13:27:05;9.90;1.00
3626;DHT22;1827;50.534;8.316;2023-04-15T13:29:32;9.90;1.00
3626;DHT22;1827;50.534;8.316;2023-04-15T13:31:58;9.90;1.00
3626;DHT22;1827;50.534;8.316;2023-04-15T13:34:24;10.00;1.00
3626;DHT22;1827;50.534;8.316;2023-04-15T13:36:50;10.00;1.00
3626;DHT22;1827;50.534;8.316;2023-04-15T13:39:15;10.10;1.00
3626;DHT22;1827;50.534;8.316;2023-04-15T13:41:41;10.00;1.00
3626;DHT22;1827;50.534;8.316;2023-04-15T13:44:06;9.90;1.00
3626;DHT22;1827;50.534;8.316;2023-04-15T13:46:32;9.80;1.00
3626;DHT22;1827;50.534;8.316;2023-04-15T13:48:58;9.70;1.00
3626;DHT22;1827;50.534;8.316;2023-04-15T13:51:23;9.60;1.00
3626;DHT22;1827;50.534;8.316;2023-04-15T13:53:49;9.90;1.00
3626;DHT22;1827;50.534;8.316;2023-04-15T13:56:14;9.90;1.00
3626;DHT22;1827;50.534;8.316;2023-04-15T13:58:40;9.90;1.00
3626;DHT22;1827;50.534;8.316;2023-04-15T14:01:06;9.70;1.00
3626;DHT22;1827;50.534;8.316;2023-04-15T14:03:31;9.60;1.00
3626;DHT22;1827;50.534;8.316;2023-04-15T14:05:57;9.50;1.00
3626;DHT22;1827;50.534;8.316;2023-04-15T14:08:23;9.50;1.00
3626;DHT22;1827;50.534;8.316;2023-04-15T14:10:49;9.60;1.00
3626;DHT22;1827;50.534;8.316;2023-04-15T14:13:15;9.30;1.00
3626;DHT22;1827;50.534;8.316;2023-04-15T14:15:40;9.40;1.00
3626;DHT22;1827;50.534;8.316;2023-04-15T14:18:06;9.70;11.20
3626;DHT22;1827;50.534;8.316;2023-04-15T14:20:32;9.70;31.40
3626;DHT22;1827;50.534;8.316;2023-04-15T14:22:57;9.70;29.10
3626;DHT22;1827;50.534;8.316;2023-04-15T14:25:23;9.80;1.00
3626;DHT22;1827;50.534;8.316;2023-04-15T14:27:49;9.70;1.00
3626;DHT22;1827;50.534;8.316;2023-04-15T14:30:14;9.60;1.00
3626;DHT22;1827;50.534;8.316;2023-04-15T14:32:40;9.60;1.00
3626;DHT22;1827;50.534;8.316;2023-04-15T14:35:06;9.70;17.00
3626;DHT22;1827;50.534;8.316;2023-04-15T14:37:31;9.60;28.40
3626;DHT22;1827;50.534;8.316;2023-04-15T14:39:57;9.60;30.10
3626;DHT22;1827;50.534;8.316;2023-04-15T14:42:23;9.60;12.30
3626;DHT22;1827;50.534;8.316;2023-04-15T14:44:48;9.50;37.50
3626;DHT22;1827;50.534;8.316;2023-04-15T14:47:14;9.60;56.80
3626;DHT22;1827;50.534;8.316;2023-04-15T14:49:40;9.50;72.20
3626;DHT22;1827;50.534;8.316;2023-04-15T14:52:06;9.50;69.50
3626;DHT22;1827;50.534;8.316;2023-04-15T14:54:31;9.50;99.90
3626;DHT22;1827;50.534;8.316;2023-04-15T14:56:57;9.50;99.30
3626;DHT22;1827;50.534;8.316;2023-04-15T14:59:22;9.50;90.80
3626;DHT22;1827;50.534;8.316;2023-04-15T15:01:48;9.50;99.90
3626;DHT22;1827;50.534;8.316;2023-04-15T15:04:13;9.60;94.70
3626;DHT22;1827;50.534;8.316;2023-04-15T15:06:39;9.60;94.10
3626;DHT22;1827;50.534;8.316;2023-04-15T15:09:05;9.50;98.40
3626;DHT22;1827;50.534;8.316;2023-04-15T15:11:30;9.50;99.90
3626;DHT22;1827;50.534;8.316;2023-04-15T15:13:56;9.50;98.00
3626;DHT22;1827;50.534;8.316;2023-04-15T15:16:22;9.50;89.40
3626;DHT22;1827;50.534;8.316;2023-04-15T15:18:48;9.40;94.60
3626;DHT22;1827;50.534;8.316;2023-04-15T15:21:15;9.40;99.90
3626;DHT22;1827;50.534;8.316;2023-04-15T15:23:41;9.10;99.90
3626;DHT22;1827;50.534;8.316;2023-04-15T15:26:06;9.10;99.90
3626;DHT22;1827;50.534;8.316;2023-04-15T15:28:32;9.00;99.90
3626;DHT22;1827;50.534;8.316;2023-04-15T15:30:58;9.00;99.90
3626;DHT22;1827;50.534;8.316;2023-04-15T15:33:24;9.20;99.90
3626;DHT22;1827;50.534;8.316;2023-04-15T15:35:49;9.20;99.90
3626;DHT22;1827;50.534;8.316;2023-04-15T15:38:15;9.20;99.90
3626;DHT22;1827;50.534;8.316;2023-04-15T15:40:41;9.10;99.90
3626;DHT22;1827;50.534;8.316;2023-04-15T15:43:06;8.90;99.90
3626;DHT22;1827;50.534;8.316;2023-04-15T15:45:32;9.00;99.90
3626;DHT22;1827;50.534;8.316;2023-04-15T15:47:57;9.00;99.90
3626;DHT22;1827;50.534;8.316;2023-04-15T15:50:24;8.80;99.90
3626;DHT22;1827;50.534;8.316;2023-04-15T15:52:50;8.80;99.90
3626;DHT22;1827;50.534;8.316;2023-04-15T15:55:15;8.80;99.90
3626;DHT22;1827;50.534;8.316;2023-04-15T15:57:41;8.90;99.90
3626;DHT22;1827;50.534;8.316;2023-04-15T16:00:07;8.90;99.90
3626;DHT22;1827;50.534;8.316;2023-04-15T16:02:34;8.90;99.90
3626;DHT22;1827;50.534;8.316;2023-04-15T16:05:00;9.00;99.90
3626;DHT22;1827;50.534;8.316;2023-04-15T16:07:25;8.90;99.90
3626;DHT22;1827;50.534;8.316;2023-04-15T16:09:51;8.90;99.90
3626;DHT22;1827;50.534;8.316;2023-04-15T16:12:17;8.80;99.90
3626;DHT22;1827;50.534;8.316;2023-04-15T16:14:42;8.90;99.90
3626;DHT22;1827;50.534;8.316;2023-04-15T16:17:08;8.90;99.90
3626;DHT22;1827;50.534;8.316;2023-04-15T16:19:33;8.90;99.90
3626;DHT22;1827;50.534;8.316;2023-04-15T16:21:59;9.00;99.90
3626;DHT22;1827;50.534;8.316;2023-04-15T16:24:26;8.80;99.90
3626;DHT22;1827;50.534;8.316;2023-04-15T16:26:51;8.80;99.90
3626;DHT22;1827;50.534;8.316;2023-04-15T16:29:17;8.70;99.90
3626;DHT22;1827;50.534;8.316;2023-04-15T16:31:43;8.80;99.90
3626;DHT22;1827;50.534;8.316;2023-04-15T16:34:09;8.90;99.90